sensor_id;sensor_type;location;lat;lon;timestamp;pressure;altitude;pressure_sealevel;temperature;humidity
40946;BME280;55635;50.264;11.918;2023-02-18T00:00:50;96036.97;;;11.32;90.45
40946;BME280;55635;50.264;11.918;2023-02-18T00:03:31;96034.53;;;11.30;90.43
40946;BME280;55635;50.264;11.918;2023-02-18T00:06:29;96030.50;;;11.34;90.75
40946;BME280;55635;50.264;11.918;2023-02-18T00:09:11;96030.75;;;11.25;90.50
40946;BME280;55635;50.264;11.918;2023-02-18T00:11:52;96030.94;;;11.23;90.21
40946;BME280;55635;50.264;11.918;2023-02-18T00:14:33;96030.03;;;11.31;90.26
40946;BME280;55635;50.264;11.918;2023-02-18T00:17:14;96029.94;;;11.24;89.91
40946;BME280;55635;50.264;11.918;2023-02-18T00:19:55;96027.41;;;11.08;91.08
40946;BME280;55635;50.264;11.918;2023-02-18T00:22:36;96036.31;;;11.15;90.89
40946;BME280;55635;50.264;11.918;2023-02-18T00:25:17;96035.47;;;11.15;90.52
40946;BME280;55635;50.264;11.918;2023-02-18T00:27:58;96026.97;;;11.19;90.26
40946;BME280;55635;50.264;11.918;2023-02-18T00:30:41;96026.28;;;11.03;91.39
40946;BME280;55635;50.264;11.918;2023-02-18T00:33:23;96025.88;;;10.91;91.12
40946;BME280;55635;50.264;11.918;2023-02-18T00:36:08;96035.59;;;11.21;90.65
40946;BME280;55635;50.264;11.918;2023-02-18T00:38:54;96026.41;;;11.09;90.17
40946;BME280;55635;50.264;11.918;2023-02-18T00:41:35;96032.72;;;11.08;90.39
40946;BME280;55635;50.264;11.918;2023-02-18T00:44:16;96033.69;;;11.30;88.86
40946;BME280;55635;50.264;11.918;2023-02-18T00:46:57;96032.47;;;11.18;89.36
40946;BME280;55635;50.264;11.918;2023-02-18T00:49:38;96038.81;;;11.31;88.57
40946;BME280;55635;50.264;11.918;2023-02-18T00:52:19;96041.53;;;11.23;88.48
40946;BME280;55635;50.264;11.918;2023-02-18T00:55:00;96037.16;;;11.16;89.12
40946;BME280;55635;50.264;11.918;2023-02-18T00:57:41;96032.56;;;11.10;88.63
40946;BME280;55635;50.264;11.918;2023-02-18T01:00:22;96037.25;;;11.00;88.79
40946;BME280;55635;50.264;11.918;2023-02-18T01:03:06;96040.94;;;11.13;88.16
40946;BME280;55635;50.264;11.918;2023-02-18T01:05:51;96034.97;;;10.97;88.90
40946;BME280;55635;50.264;11.918;2023-02-18T01:08:33;96037.50;;;11.13;88.79
40946;BME280;55635;50.264;11.918;2023-02-18T01:11:15;96038.97;;;11.15;88.48
40946;BME280;55635;50.264;11.918;2023-02-18T01:13:56;96044.09;;;10.94;89.38
40946;BME280;55635;50.264;11.918;2023-02-18T01:16:37;96038.78;;;11.17;88.37
40946;BME280;55635;50.264;11.918;2023-02-18T01:19:17;96044.66;;;11.04;88.53
40946;BME280;55635;50.264;11.918;2023-02-18T01:21:59;96039.59;;;11.17;88.44
40946;BME280;55635;50.264;11.918;2023-02-18T01:24:39;96037.84;;;11.10;87.72
40946;BME280;55635;50.264;11.918;2023-02-18T01:27:20;96036.88;;;10.80;88.45
40946;BME280;55635;50.264;11.918;2023-02-18T01:30:06;96037.50;;;10.90;88.67
40946;BME280;55635;50.264;11.918;2023-02-18T01:32:48;96026.63;;;10.77;88.59
40946;BME280;55635;50.264;11.918;2023-02-18T01:35:29;96032.53;;;10.87;88.30
40946;BME280;55635;50.264;11.918;2023-02-18T01:38:10;96023.47;;;10.81;88.19
40946;BME280;55635;50.264;11.918;2023-02-18T01:40:53;96026.00;;;10.75;88.09
40946;BME280;55635;50.264;11.918;2023-02-18T01:43:35;96027.88;;;10.89;88.00
40946;BME280;55635;50.264;11.918;2023-02-18T01:46:21;96024.16;;;10.98;87.53
40946;BME280;55635;50.264;11.918;2023-02-18T01:49:02;96030.88;;;10.86;87.17
40946;BME280;55635;50.264;11.918;2023-02-18T01:51:50;96025.56;;;10.86;87.71
40946;BME280;55635;50.264;11.918;2023-02-18T01:54:43;96023.53;;;10.96;87.56
40946;BME280;55635;50.264;11.918;2023-02-18T01:57:33;96015.44;;;10.89;87.36
40946;BME280;55635;50.264;11.918;2023-02-18T02:00:18;96026.16;;;10.96;86.95
40946;BME280;55635;50.264;11.918;2023-02-18T02:03:01;96021.66;;;10.82;87.89
40946;BME280;55635;50.264;11.918;2023-02-18T02:05:42;96014.72;;;10.96;87.26
40946;BME280;55635;50.264;11.918;2023-02-18T02:08:25;96000.34;;;10.67;88.15
40946;BME280;55635;50.264;11.918;2023-02-18T02:11:31;96016.16;;;11.06;87.38
40946;BME280;55635;50.264;11.918;2023-02-18T02:23:51;96002.28;;;10.96;87.17
40946;BME280;55635;50.264;11.918;2023-02-18T02:33:44;96004.66;;;10.91;87.53
40946;BME280;55635;50.264;11.918;2023-02-18T02:43:48;96014.97;;;10.86;88.57
40946;BME280;55635;50.264;11.918;2023-02-18T02:46:43;96015.22;;;10.99;87.19
40946;BME280;55635;50.264;11.918;2023-02-18T02:52:39;96013.25;;;10.93;87.62
40946;BME280;55635;50.264;11.918;2023-02-18T02:55:21;96004.44;;;10.78;86.97
40946;BME280;55635;50.264;11.918;2023-02-18T02:58:05;96004.78;;;10.98;86.54
40946;BME280;55635;50.264;11.918;2023-02-18T03:01:35;96015.44;;;11.12;85.60
40946;BME280;55635;50.264;11.918;2023-02-18T03:10:55;96006.44;;;10.76;85.92
40946;BME280;55635;50.264;11.918;2023-02-18T03:17:31;95997.69;;;10.67;85.78
40946;BME280;55635;50.264;11.918;2023-02-18T03:20:34;95999.75;;;10.80;86.09
40946;BME280;55635;50.264;11.918;2023-02-18T03:23:20;95995.47;;;10.79;86.61
40946;BME280;55635;50.264;11.918;2023-02-18T03:26:05;96001.34;;;10.89;85.94
40946;BME280;55635;50.264;11.918;2023-02-18T03:28:48;96001.69;;;10.86;85.62
40946;BME280;55635;50.264;11.918;2023-02-18T03:31:33;96009.59;;;10.71;86.47
40946;BME280;55635;50.264;11.918;2023-02-18T03:34:35;96016.88;;;11.00;85.79
40946;BME280;55635;50.264;11.918;2023-02-18T03:37:18;96009.19;;;11.05;85.78
40946;BME280;55635;50.264;11.918;2023-02-18T03:40:03;95994.81;;;10.77;86.61
40946;BME280;55635;50.264;11.918;2023-02-18T03:42:45;95999.38;;;10.91;86.03
40946;BME280;55635;50.264;11.918;2023-02-18T03:45:27;95995.38;;;10.64;87.61
40946;BME280;55635;50.264;11.918;2023-02-18T03:48:08;95989.69;;;10.75;87.08
40946;BME280;55635;50.264;11.918;2023-02-18T03:50:49;95998.09;;;10.56;87.88
40946;BME280;55635;50.264;11.918;2023-02-18T03:53:29;95997.78;;;10.82;86.87
40946;BME280;55635;50.264;11.918;2023-02-18T03:56:11;96007.84;;;10.86;86.62
40946;BME280;55635;50.264;11.918;2023-02-18T03:58:52;96001.03;;;10.61;87.72
40946;BME280;55635;50.264;11.918;2023-02-18T04:01:33;96001.41;;;10.81;87.08
40946;BME280;55635;50.264;11.918;2023-02-18T04:04:15;96011.09;;;10.97;86.10
40946;BME280;55635;50.264;11.918;2023-02-18T04:06:56;96003.66;;;10.92;85.80
40946;BME280;55635;50.264;11.918;2023-02-18T04:09:37;95998.84;;;10.73;86.78
40946;BME280;55635;50.264;11.918;2023-02-18T04:12:18;95996.28;;;10.79;86.74
40946;BME280;55635;50.264;11.918;2023-02-18T04:14:59;96006.59;;;10.97;85.84
40946;BME280;55635;50.264;11.918;2023-02-18T04:17:40;95999.59;;;10.81;85.74
40946;BME280;55635;50.264;11.918;2023-02-18T04:20:21;96002.06;;;10.83;85.74
40946;BME280;55635;50.264;11.918;2023-02-18T04:23:03;96016.56;;;10.72;86.71
40946;BME280;55635;50.264;11.918;2023-02-18T04:25:44;96024.78;;;10.85;86.63
40946;BME280;55635;50.264;11.918;2023-02-18T04:28:25;96023.75;;;10.86;86.73
40946;BME280;55635;50.264;11.918;2023-02-18T04:31:06;96009.66;;;10.86;86.65
40946;BME280;55635;50.264;11.918;2023-02-18T04:33:47;96022.06;;;10.93;86.24
40946;BME280;55635;50.264;11.918;2023-02-18T04:36:28;95993.47;;;11.04;85.61
40946;BME280;55635;50.264;11.918;2023-02-18T04:39:09;96012.19;;;11.02;85.32
40946;BME280;55635;50.264;11.918;2023-02-18T04:41:50;95995.31;;;10.95;86.23
40946;BME280;55635;50.264;11.918;2023-02-18T04:44:31;96006.50;;;10.90;87.26
40946;BME280;55635;50.264;11.918;2023-02-18T04:47:12;95996.41;;;10.86;87.57
40946;BME280;55635;50.264;11.918;2023-02-18T04:49:53;96011.38;;;11.02;87.35
40946;BME280;55635;50.264;11.918;2023-02-18T04:52:34;95997.19;;;10.95;87.21
40946;BME280;55635;50.264;11.918;2023-02-18T04:55:15;95998.41;;;10.84;87.93
40946;BME280;55635;50.264;11.918;2023-02-18T04:57:56;95995.31;;;10.95;87.75
40946;BME280;55635;50.264;11.918;2023-02-18T05:00:39;95984.78;;;10.87;88.06
40946;BME280;55635;50.264;11.918;2023-02-18T05:03:20;95970.34;;;10.89;87.90
40946;BME280;55635;50.264;11.918;2023-02-18T05:06:01;95966.06;;;10.88;88.20
40946;BME280;55635;50.264;11.918;2023-02-18T05:08:43;95971.56;;;11.02;87.73
40946;BME280;55635;50.264;11.918;2023-02-18T05:11:23;95953.06;;;10.93;88.00
40946;BME280;55635;50.264;11.918;2023-02-18T05:14:05;95959.13;;;11.02;87.81
40946;BME280;55635;50.264;11.918;2023-02-18T05:16:45;95951.25;;;10.94;88.66
40946;BME280;55635;50.264;11.918;2023-02-18T05:19:26;95945.00;;;10.87;89.24
40946;BME280;55635;50.264;11.918;2023-02-18T05:22:07;95936.88;;;10.66;90.11
40946;BME280;55635;50.264;11.918;2023-02-18T05:24:48;95932.78;;;11.01;88.98
40946;BME280;55635;50.264;11.918;2023-02-18T05:27:29;95931.75;;;10.87;89.72
40946;BME280;55635;50.264;11.918;2023-02-18T05:30:11;95930.31;;;10.99;88.74
40946;BME280;55635;50.264;11.918;2023-02-18T05:32:51;95908.34;;;10.90;88.78
40946;BME280;55635;50.264;11.918;2023-02-18T05:35:32;95931.00;;;11.16;87.79
40946;BME280;55635;50.264;11.918;2023-02-18T05:38:13;95902.75;;;10.85;88.34
40946;BME280;55635;50.264;11.918;2023-02-18T05:40:55;95940.88;;;10.84;88.57
40946;BME280;55635;50.264;11.918;2023-02-18T05:43:35;95941.84;;;11.06;88.16
40946;BME280;55635;50.264;11.918;2023-02-18T05:46:36;95938.41;;;11.20;87.27
40946;BME280;55635;50.264;11.918;2023-02-18T05:49:17;95900.59;;;11.18;86.98
40946;BME280;55635;50.264;11.918;2023-02-18T05:51:58;95893.47;;;10.67;89.23
40946;BME280;55635;50.264;11.918;2023-02-18T05:54:39;95903.38;;;10.87;89.37
40946;BME280;55635;50.264;11.918;2023-02-18T05:57:21;95899.09;;;11.01;88.63
40946;BME280;55635;50.264;11.918;2023-02-18T06:00:05;95904.50;;;10.93;89.16
40946;BME280;55635;50.264;11.918;2023-02-18T06:02:47;95905.97;;;11.10;87.91
40946;BME280;55635;50.264;11.918;2023-02-18T06:05:28;95904.50;;;11.08;87.88
40946;BME280;55635;50.264;11.918;2023-02-18T06:08:09;95886.28;;;10.90;88.84
40946;BME280;55635;50.264;11.918;2023-02-18T06:10:50;95900.19;;;10.92;89.21
40946;BME280;55635;50.264;11.918;2023-02-18T06:13:31;95900.28;;;10.84;89.93
40946;BME280;55635;50.264;11.918;2023-02-18T06:16:11;95866.78;;;10.83;89.15
40946;BME280;55635;50.264;11.918;2023-02-18T06:18:53;95898.44;;;10.84;89.82
40946;BME280;55635;50.264;11.918;2023-02-18T06:21:34;95867.72;;;10.90;89.87
40946;BME280;55635;50.264;11.918;2023-02-18T06:24:15;95879.69;;;10.86;89.66
40946;BME280;55635;50.264;11.918;2023-02-18T06:26:56;95883.16;;;10.86;89.53
40946;BME280;55635;50.264;11.918;2023-02-18T06:29:37;95896.16;;;10.81;89.97
40946;BME280;55635;50.264;11.918;2023-02-18T06:32:18;95889.50;;;10.85;89.53
40946;BME280;55635;50.264;11.918;2023-02-18T06:34:59;95890.78;;;11.04;89.12
40946;BME280;55635;50.264;11.918;2023-02-18T06:37:39;95889.50;;;11.00;89.77
40946;BME280;55635;50.264;11.918;2023-02-18T06:40:20;95874.84;;;10.89;90.29
40946;BME280;55635;50.264;11.918;2023-02-18T06:43:01;95883.47;;;11.06;89.48
40946;BME280;55635;50.264;11.918;2023-02-18T06:45:42;95876.88;;;11.02;89.71
40946;BME280;55635;50.264;11.918;2023-02-18T06:48:24;95875.22;;;11.01;89.05
40946;BME280;55635;50.264;11.918;2023-02-18T06:51:05;95867.00;;;11.11;89.13
40946;BME280;55635;50.264;11.918;2023-02-18T06:53:46;95859.66;;;10.98;89.43
40946;BME280;55635;50.264;11.918;2023-02-18T06:56:27;95865.91;;;11.05;89.28
40946;BME280;55635;50.264;11.918;2023-02-18T06:59:08;95866.88;;;10.89;90.09
40946;BME280;55635;50.264;11.918;2023-02-18T07:01:49;95880.00;;;11.20;88.00
40946;BME280;55635;50.264;11.918;2023-02-18T07:04:29;95869.03;;;11.23;88.08
40946;BME280;55635;50.264;11.918;2023-02-18T07:07:10;95871.03;;;11.21;87.45
40946;BME280;55635;50.264;11.918;2023-02-18T07:09:51;95863.53;;;11.10;87.47
40946;BME280;55635;50.264;11.918;2023-02-18T07:12:32;95865.19;;;11.11;88.37
40946;BME280;55635;50.264;11.918;2023-02-18T07:15:14;95865.28;;;11.18;87.62
40946;BME280;55635;50.264;11.918;2023-02-18T07:17:55;95857.03;;;11.13;87.93
40946;BME280;55635;50.264;11.918;2023-02-18T07:20:36;95863.16;;;11.13;88.03
40946;BME280;55635;50.264;11.918;2023-02-18T07:23:17;95857.66;;;11.29;87.73
40946;BME280;55635;50.264;11.918;2023-02-18T07:26:12;95861.25;;;11.36;88.57
40946;BME280;55635;50.264;11.918;2023-02-18T07:28:54;95847.06;;;11.29;88.95
40946;BME280;55635;50.264;11.918;2023-02-18T07:31:35;95848.34;;;11.33;89.10
40946;BME280;55635;50.264;11.918;2023-02-18T07:34:16;95843.03;;;11.33;89.28
40946;BME280;55635;50.264;11.918;2023-02-18T07:36:56;95851.72;;;11.42;89.57
40946;BME280;55635;50.264;11.918;2023-02-18T07:39:42;95829.56;;;11.20;90.32
40946;BME280;55635;50.264;11.918;2023-02-18T07:42:23;95816.19;;;11.28;90.33
40946;BME280;55635;50.264;11.918;2023-02-18T07:45:04;95812.84;;;11.05;91.39
40946;BME280;55635;50.264;11.918;2023-02-18T07:47:45;95822.06;;;11.24;91.37
40946;BME280;55635;50.264;11.918;2023-02-18T07:50:27;95805.34;;;11.09;92.47
40946;BME280;55635;50.264;11.918;2023-02-18T07:53:10;95810.00;;;10.92;93.90
40946;BME280;55635;50.264;11.918;2023-02-18T07:55:51;95808.34;;;11.20;92.93
40946;BME280;55635;50.264;11.918;2023-02-18T07:58:37;95801.66;;;11.24;93.16
40946;BME280;55635;50.264;11.918;2023-02-18T08:01:18;95788.69;;;11.15;94.01
40946;BME280;55635;50.264;11.918;2023-02-18T08:03:59;95800.28;;;11.43;92.80
40946;BME280;55635;50.264;11.918;2023-02-18T08:06:44;95781.03;;;11.41;93.04
40946;BME280;55635;50.264;11.918;2023-02-18T08:09:26;95792.78;;;11.17;95.87
40946;BME280;55635;50.264;11.918;2023-02-18T08:12:08;95801.66;;;11.24;95.99
40946;BME280;55635;50.264;11.918;2023-02-18T08:14:49;95798.78;;;11.55;95.24
40946;BME280;55635;50.264;11.918;2023-02-18T08:17:30;95802.09;;;11.42;94.11
40946;BME280;55635;50.264;11.918;2023-02-18T08:20:12;95800.06;;;11.44;94.79
40946;BME280;55635;50.264;11.918;2023-02-18T08:22:52;95789.47;;;11.44;95.08
40946;BME280;55635;50.264;11.918;2023-02-18T08:25:33;95788.00;;;11.42;95.81
40946;BME280;55635;50.264;11.918;2023-02-18T08:28:15;95800.69;;;11.61;94.66
40946;BME280;55635;50.264;11.918;2023-02-18T08:30:57;95789.47;;;11.44;96.68
40946;BME280;55635;50.264;11.918;2023-02-18T08:33:38;95788.84;;;11.28;98.86
40946;BME280;55635;50.264;11.918;2023-02-18T08:36:19;95792.25;;;11.22;98.26
40946;BME280;55635;50.264;11.918;2023-02-18T08:39:00;95783.19;;;11.16;99.84
40946;BME280;55635;50.264;11.918;2023-02-18T08:41:41;95775.72;;;11.41;99.13
40946;BME280;55635;50.264;11.918;2023-02-18T08:44:22;95788.03;;;10.98;99.90
40946;BME280;55635;50.264;11.918;2023-02-18T08:47:03;95769.16;;;11.22;99.54
40946;BME280;55635;50.264;11.918;2023-02-18T08:49:44;95754.63;;;11.18;99.54
40946;BME280;55635;50.264;11.918;2023-02-18T08:52:25;95757.63;;;11.30;97.07
40946;BME280;55635;50.264;11.918;2023-02-18T08:55:07;95777.66;;;11.32;97.44
40946;BME280;55635;50.264;11.918;2023-02-18T08:57:48;95770.94;;;11.15;95.82
40946;BME280;55635;50.264;11.918;2023-02-18T09:00:29;95774.84;;;11.34;95.42
40946;BME280;55635;50.264;11.918;2023-02-18T09:03:13;95777.72;;;11.03;96.39
40946;BME280;55635;50.264;11.918;2023-02-18T09:05:55;95774.50;;;10.78;95.89
40946;BME280;55635;50.264;11.918;2023-02-18T09:08:36;95787.31;;;10.89;96.58
40946;BME280;55635;50.264;11.918;2023-02-18T09:11:18;95790.63;;;10.91;95.68
40946;BME280;55635;50.264;11.918;2023-02-18T09:13:59;95788.22;;;10.97;95.97
40946;BME280;55635;50.264;11.918;2023-02-18T09:16:40;95793.19;;;10.85;95.34
40946;BME280;55635;50.264;11.918;2023-02-18T09:19:21;95788.25;;;10.82;95.40
40946;BME280;55635;50.264;11.918;2023-02-18T09:22:02;95827.72;;;10.77;95.89
40946;BME280;55635;50.264;11.918;2023-02-18T09:24:43;95805.88;;;10.89;96.30
40946;BME280;55635;50.264;11.918;2023-02-18T09:27:24;95808.25;;;10.70;96.44
40946;BME280;55635;50.264;11.918;2023-02-18T09:30:06;95812.00;;;10.90;96.30
40946;BME280;55635;50.264;11.918;2023-02-18T09:32:47;95807.59;;;10.82;96.53
40946;BME280;55635;50.264;11.918;2023-02-18T09:35:28;95814.03;;;10.88;95.56
40946;BME280;55635;50.264;11.918;2023-02-18T09:38:11;95816.13;;;10.92;95.17
40946;BME280;55635;50.264;11.918;2023-02-18T09:40:52;95813.91;;;10.67;94.41
40946;BME280;55635;50.264;11.918;2023-02-18T09:43:42;95791.69;;;10.68;95.20
40946;BME280;55635;50.264;11.918;2023-02-18T09:46:31;95813.28;;;10.79;95.04
40946;BME280;55635;50.264;11.918;2023-02-18T09:49:26;95803.59;;;11.01;94.16
40946;BME280;55635;50.264;11.918;2023-02-18T09:52:20;95804.78;;;10.69;94.17
40946;BME280;55635;50.264;11.918;2023-02-18T09:55:28;95800.22;;;10.92;94.26
40946;BME280;55635;50.264;11.918;2023-02-18T09:58:31;95781.00;;;10.90;93.57
40946;BME280;55635;50.264;11.918;2023-02-18T10:01:29;95767.09;;;11.03;93.22
40946;BME280;55635;50.264;11.918;2023-02-18T10:04:16;95750.28;;;10.81;93.17
40946;BME280;55635;50.264;11.918;2023-02-18T10:06:59;95754.03;;;10.72;92.28
40946;BME280;55635;50.264;11.918;2023-02-18T10:09:43;95760.22;;;10.79;92.00
40946;BME280;55635;50.264;11.918;2023-02-18T10:12:26;95771.41;;;10.60;91.99
40946;BME280;55635;50.264;11.918;2023-02-18T10:15:16;95772.59;;;10.58;92.39
40946;BME280;55635;50.264;11.918;2023-02-18T10:17:59;95755.22;;;10.70;91.62
40946;BME280;55635;50.264;11.918;2023-02-18T10:20:41;95775.16;;;10.66;90.09
40946;BME280;55635;50.264;11.918;2023-02-18T10:23:23;95758.03;;;10.83;88.67
40946;BME280;55635;50.264;11.918;2023-02-18T10:26:10;95752.56;;;10.70;88.45
40946;BME280;55635;50.264;11.918;2023-02-18T10:28:54;95760.88;;;10.67;87.07
40946;BME280;55635;50.264;11.918;2023-02-18T10:31:38;95769.66;;;10.82;87.21
40946;BME280;55635;50.264;11.918;2023-02-18T10:50:33;95729.13;;;11.03;84.48
40946;BME280;55635;50.264;11.918;2023-02-18T10:59:22;95715.06;;;10.87;84.03
40946;BME280;55635;50.264;11.918;2023-02-18T11:02:16;95710.66;;;10.80;83.34
40946;BME280;55635;50.264;11.918;2023-02-18T11:04:59;95703.88;;;10.92;83.92
40946;BME280;55635;50.264;11.918;2023-02-18T11:07:52;95711.09;;;10.98;83.68
40946;BME280;55635;50.264;11.918;2023-02-18T11:10:39;95703.97;;;10.99;83.09
40946;BME280;55635;50.264;11.918;2023-02-18T11:13:29;95706.16;;;11.10;82.45
40946;BME280;55635;50.264;11.918;2023-02-18T11:16:12;95698.13;;;11.03;82.13
40946;BME280;55635;50.264;11.918;2023-02-18T11:18:53;95694.38;;;10.98;82.51
40946;BME280;55635;50.264;11.918;2023-02-18T11:21:37;95680.53;;;11.02;80.74
40946;BME280;55635;50.264;11.918;2023-02-18T11:24:19;95694.81;;;11.01;81.07
40946;BME280;55635;50.264;11.918;2023-02-18T11:27:00;95693.84;;;11.23;80.39
40946;BME280;55635;50.264;11.918;2023-02-18T11:29:41;95695.34;;;11.11;79.92
40946;BME280;55635;50.264;11.918;2023-02-18T11:32:27;95715.25;;;11.36;79.30
40946;BME280;55635;50.264;11.918;2023-02-18T11:35:22;95699.91;;;11.17;79.38
40946;BME280;55635;50.264;11.918;2023-02-18T11:38:23;95693.19;;;11.00;78.70
40946;BME280;55635;50.264;11.918;2023-02-18T11:41:09;95673.09;;;10.91;78.89
40946;BME280;55635;50.264;11.918;2023-02-18T11:43:52;95676.00;;;10.96;78.46
40946;BME280;55635;50.264;11.918;2023-02-18T11:46:34;95674.56;;;11.15;78.83
40946;BME280;55635;50.264;11.918;2023-02-18T11:49:23;95650.66;;;10.93;78.30
40946;BME280;55635;50.264;11.918;2023-02-18T11:52:13;95674.53;;;10.93;78.27
40946;BME280;55635;50.264;11.918;2023-02-18T11:55:18;95648.03;;;11.15;77.65
40946;BME280;55635;50.264;11.918;2023-02-18T11:58:03;95646.47;;;11.20;77.28
40946;BME280;55635;50.264;11.918;2023-02-18T12:00:48;95644.63;;;11.21;77.24
40946;BME280;55635;50.264;11.918;2023-02-18T12:03:58;95626.25;;;11.40;75.54
40946;BME280;55635;50.264;11.918;2023-02-18T12:09:48;95627.69;;;11.64;74.63
40946;BME280;55635;50.264;11.918;2023-02-18T12:12:58;95604.34;;;11.81;74.12
40946;BME280;55635;50.264;11.918;2023-02-18T12:22:20;95616.19;;;12.06;72.32
40946;BME280;55635;50.264;11.918;2023-02-18T12:28:04;95628.13;;;11.89;72.87
40946;BME280;55635;50.264;11.918;2023-02-18T12:34:25;95626.16;;;11.97;70.24
40946;BME280;55635;50.264;11.918;2023-02-18T12:37:34;95619.72;;;12.47;69.61
40946;BME280;55635;50.264;11.918;2023-02-18T12:41:07;95609.03;;;12.82;68.72
40946;BME280;55635;50.264;11.918;2023-02-18T12:53:47;95615.41;;;12.12;69.02
40946;BME280;55635;50.264;11.918;2023-02-18T13:05:11;95603.84;;;12.67;68.95
40946;BME280;55635;50.264;11.918;2023-02-18T13:08:48;95600.47;;;12.45;68.00
40946;BME280;55635;50.264;11.918;2023-02-18T13:15:41;95588.28;;;12.64;68.85
40946;BME280;55635;50.264;11.918;2023-02-18T13:18:38;95581.53;;;12.62;67.25
40946;BME280;55635;50.264;11.918;2023-02-18T13:21:20;95582.06;;;12.44;67.69
40946;BME280;55635;50.264;11.918;2023-02-18T13:24:06;95566.78;;;12.18;67.52
40946;BME280;55635;50.264;11.918;2023-02-18T13:26:55;95569.84;;;12.15;67.49
40946;BME280;55635;50.264;11.918;2023-02-18T13:33:10;95553.31;;;11.85;68.32
40946;BME280;55635;50.264;11.918;2023-02-18T13:36:08;95557.31;;;11.54;69.33
40946;BME280;55635;50.264;11.918;2023-02-18T13:39:07;95570.09;;;11.65;70.09
40946;BME280;55635;50.264;11.918;2023-02-18T13:41:50;95592.06;;;11.73;70.42
40946;BME280;55635;50.264;11.918;2023-02-18T13:47:44;95579.78;;;11.72;68.99
40946;BME280;55635;50.264;11.918;2023-02-18T13:50:30;95572.94;;;11.63;69.37
40946;BME280;55635;50.264;11.918;2023-02-18T13:53:21;95564.78;;;11.65;69.51
40946;BME280;55635;50.264;11.918;2023-02-18T13:56:04;95569.44;;;11.63;70.07
40946;BME280;55635;50.264;11.918;2023-02-18T13:59:17;95566.22;;;11.88;70.16
40946;BME280;55635;50.264;11.918;2023-02-18T14:05:20;95557.28;;;12.02;71.30
40946;BME280;55635;50.264;11.918;2023-02-18T14:22:51;95581.38;;;11.45;72.60
40946;BME280;55635;50.264;11.918;2023-02-18T14:25:40;95587.97;;;11.77;72.67
40946;BME280;55635;50.264;11.918;2023-02-18T14:37:40;95609.06;;;11.58;72.57
40946;BME280;55635;50.264;11.918;2023-02-18T14:41:21;95620.34;;;11.87;72.97
40946;BME280;55635;50.264;11.918;2023-02-18T14:50:19;95610.56;;;11.03;75.15
40946;BME280;55635;50.264;11.918;2023-02-18T14:53:26;95616.88;;;11.02;75.76
40946;BME280;55635;50.264;11.918;2023-02-18T14:56:09;95623.91;;;11.31;74.26
40946;BME280;55635;50.264;11.918;2023-02-18T14:59:02;95639.00;;;11.09;75.88
40946;BME280;55635;50.264;11.918;2023-02-18T15:01:46;95642.28;;;11.11;75.83
40946;BME280;55635;50.264;11.918;2023-02-18T15:04:27;95631.16;;;11.22;75.80
40946;BME280;55635;50.264;11.918;2023-02-18T15:07:09;95622.84;;;10.89;75.89
40946;BME280;55635;50.264;11.918;2023-02-18T15:09:53;95639.25;;;10.78;76.37
40946;BME280;55635;50.264;11.918;2023-02-18T15:12:34;95644.03;;;11.04;76.22
40946;BME280;55635;50.264;11.918;2023-02-18T15:15:22;95631.66;;;10.75;76.51
40946;BME280;55635;50.264;11.918;2023-02-18T15:18:03;95643.78;;;10.99;76.03
40946;BME280;55635;50.264;11.918;2023-02-18T15:20:45;95640.94;;;11.01;77.14
40946;BME280;55635;50.264;11.918;2023-02-18T15:23:26;95647.75;;;10.88;77.27
40946;BME280;55635;50.264;11.918;2023-02-18T15:26:13;95622.09;;;10.60;78.18
40946;BME280;55635;50.264;11.918;2023-02-18T15:29:01;95628.66;;;10.78;77.27
40946;BME280;55635;50.264;11.918;2023-02-18T15:31:42;95632.94;;;10.79;78.06
40946;BME280;55635;50.264;11.918;2023-02-18T15:34:32;95644.00;;;10.83;77.80
40946;BME280;55635;50.264;11.918;2023-02-18T15:37:14;95650.13;;;10.83;78.18
40946;BME280;55635;50.264;11.918;2023-02-18T15:39:55;95651.13;;;10.82;78.08
40946;BME280;55635;50.264;11.918;2023-02-18T15:42:37;95653.63;;;10.69;78.87
40946;BME280;55635;50.264;11.918;2023-02-18T15:45:22;95646.31;;;10.71;78.45
40946;BME280;55635;50.264;11.918;2023-02-18T15:48:05;95648.19;;;10.92;78.06
40946;BME280;55635;50.264;11.918;2023-02-18T15:50:52;95637.56;;;10.92;77.59
40946;BME280;55635;50.264;11.918;2023-02-18T15:53:40;95665.78;;;11.14;77.73
40946;BME280;55635;50.264;11.918;2023-02-18T15:56:40;95669.22;;;10.93;77.34
40946;BME280;55635;50.264;11.918;2023-02-18T15:59:30;95684.00;;;11.17;77.27
40946;BME280;55635;50.264;11.918;2023-02-18T16:02:23;95689.50;;;11.16;77.53
40946;BME280;55635;50.264;11.918;2023-02-18T16:05:12;95692.00;;;11.03;77.84
40946;BME280;55635;50.264;11.918;2023-02-18T16:08:06;95668.59;;;10.77;77.87
40946;BME280;55635;50.264;11.918;2023-02-18T16:11:06;95690.66;;;10.63;79.75
40946;BME280;55635;50.264;11.918;2023-02-18T16:13:48;95693.66;;;10.89;78.64
40946;BME280;55635;50.264;11.918;2023-02-18T16:16:35;95691.09;;;10.81;78.76
40946;BME280;55635;50.264;11.918;2023-02-18T16:19:23;95698.53;;;10.85;78.90
40946;BME280;55635;50.264;11.918;2023-02-18T16:22:05;95701.50;;;10.82;79.26
40946;BME280;55635;50.264;11.918;2023-02-18T16:24:48;95695.84;;;10.71;80.03
40946;BME280;55635;50.264;11.918;2023-02-18T16:27:37;95703.25;;;10.46;80.58
40946;BME280;55635;50.264;11.918;2023-02-18T16:30:29;95709.03;;;10.79;80.98
40946;BME280;55635;50.264;11.918;2023-02-18T16:33:11;95707.41;;;10.63;81.33
40946;BME280;55635;50.264;11.918;2023-02-18T16:35:52;95707.28;;;10.71;81.33
40946;BME280;55635;50.264;11.918;2023-02-18T16:38:37;95713.06;;;10.60;81.59
40946;BME280;55635;50.264;11.918;2023-02-18T16:41:18;95713.06;;;10.75;81.22